Terminal Aerodrome Forecast
Issued by NWS

Home | Current Version | Previous Version | Text Only | Print | Product List | Glossary On
Versions: 1 2 3 4 5 6 7 8 9 10 11 12 13 14
698
FTUS44 KLZK 270529
TAFBPK
TAF
KBPK 270529Z 2706/2806 18008KT P6SM VCTS SCT025 BKN050CB
     FM270800 17003KT 5SM BR VCSH BKN007 OVC015
     FM271500 19010KT P6SM OVC025
     FM271800 18012G20KT P6SM SCT025 BKN040
     FM280000 19010G16KT P6SM BKN025 OVC040=

USA.gov is the U.S. government's official web portal to all federal, state and local government web resources and services.